Racecast

Vishnu Kumar

Hickory Ridge (NC) · 12 · SW4ANC D7ACABARRUS4A · Compare head to head

Athlete ratingi 108.8 2019 TF season
Best race 117.5 XC
Races 56
Seasons 5 2015 — 2019

RankedNation #61629·NC #1485·NC D7A #372·SW4A #11·Team #12 ?

Speed rating — all races

Cross Country

XC speed rating

2018 XC 113.3

Hickory Ridge (NC) · Grade 12

Date Meet Event Result Place Ratingi Difficultyi PR/SR Flags
2018-10-27 Ivey Redmon Sports Complex 5000m 18:49.1 63rd · 3rd on team 111.9 -1.4% CSR
2018-10-17 Myers Park High School 4828m 17:39.3 16th · 2nd on team 114.9 -1.8% ★PR ★CR SR CSR
2018-10-13 Ivey Redmon Sports Complex 5000m 18:59.6 77th · 4th on team 110.6 -1.4% CSR
2018-10-06 McAlpine Creek Park 5000m 18:37.7 67th · 3rd on team 113.2 -2.1%
2018-10-02 Frank Lisk Park 5000m 18:23 13th · 3rd on team 116.9 -0.1% ★PR ★CR SR CSR RSR
2018-09-25 Frank Lisk Park 5000m 19:06.4 12th · 2nd on team 111.6 -0.1%
2018-09-22 McAlpine Creek Park 5000m 18:31 104th · 4th on team 114.1 -2.1% PR ★CR SR CSR
2018-09-13 Central Cabarrus HS 5000m 19:27 4th · 3rd on team 112.6 +3.3% ★CR CSR
2018-09-04 Frank Lisk Park 3218m 11:47 9th · 1st on team 115.6 +4.2% ★PR ★CR SR CSR RSR
2018-08-30 Frank Lisk Park 5000m 18:59.3 4th · 3rd on team 112.7 -0.1% CSR RSR
2018-08-18 Cuthbertson HS 5000m 18:48.3 19th · 3rd on team 112.2 -0.6% ★CR SR CSR RSR

2017 XC 111.2

Hickory Ridge (NC) · Grade 11

Date Meet Event Result Place Ratingi Difficultyi PR/SR Flags
2017-10-28 Ivey Redmon Sports Complex 5000m 18:36.2 63rd · 5th on team 112.7 -1.4%
2017-10-17 Myers Park High School 5000m 19:17.7 27th · 4th on team 115.6 +5.3% ★CR CSR RSR
2017-10-14 Ivey Redmon Sports Complex 5000m 18:35.9 53rd · 4th on team 111.4 -1.4% ★CR CSR
2017-10-07 McAlpine Creek Park 5000m 18:36.1 113th · 4th on team 110.7 -2.1% CR CSR
2017-10-03 Frank Lisk Park 5000m 18:32 12th · 4th on team 113.6 -0.1% PR CR SR CSR RSR
2017-09-26 Frank Lisk Park 5000m 18:56.9 2nd · 2nd on team 111.6 -0.1% CR CSR RSR
2017-09-23 McAlpine Creek Park 5000m 18:51.8 116th · 5th on team 111.4 -2.1% SR CSR RSR
2017-09-05 Frank Lisk Park 3218m 12:26 10th · 1st on team 109.4 +4.2% PR CR SR CSR RSR
2017-08-26 McAlpine Creek Park 5000m 19:51.5 119th · 4th on team 104.0 -2.1% SR CSR RSR
2017-08-19 Cuthbertson HS 5000m 22:12.9 77th · 7th on team -0.6% CR SR CSR

2016 XC 109.0

Hickory Ridge (NC) · Grade 10

Date Meet Event Result Place Ratingi Difficultyi PR/SR Flags
2016-10-18 Salisbury Community Park 5000m 18:33 17th · 2nd on team 117.5 +1.9% PR ★CR ★R SR CSR RSR
2016-10-06 A.L. Brown High School 5000m 18:36 12th · 3rd on team 113.9 -0.2% PR ★CR R SR CSR RSR
2016-10-01 McAlpine Creek Park 5000m 18:47.8 110th · 2nd on team 110.7 -2.1% PR CR SR CSR
2016-09-20 Central Cabarrus HS 5000m 20:03.2 12th · 3rd on team 109.5 +3.3% CR CSR
2016-09-10 Cannon School 5000m 19:15 42nd · 3rd on team 111.4 +1.1% PR ★CR R SR CSR RSR
2016-09-06 Frank Lisk Park 3200m 12:32.8 12th · 2nd on team 107.9 +4.2% ★PR ★CR R SR CSR RSR
2016-08-30 West Rowan High School 5000m 24:50 92nd · 11th on team 92.1 +7.4% ★CR SR CSR RSR

2015 XC 103.1

Hickory Ridge (NC) · Grade 9

Date Meet Event Result Place Ratingi Difficultyi PR/SR Flags
2015-09-12 Cannon School 5000m 20:38 19th · 3rd on team 103.1 +1.1% PR CR R SR CSR RSR

Track & Field

TF speed rating

2019 TF 102.9

Hickory Ridge (NC) · Grade 12

Date Meet Event Result Place Ratingi Difficultyi PR/SR Flags
2019-04-10 AK Midweek Meet #2 3200m 12:32.25 14th · 4th on team 98.7 +0.5% SR
2019-04-10 AK Midweek Meet #2 800m 2:20.07 19th · 4th on team 108.6 +0.5% ★PR SR
2019-04-10 AK Midweek Meet #2 1600m 5:03.33 19th · 2nd on team 112.8 +0.5% ★PR SR RSR
2019-03-13 Ardrey Kell Midweek Meet 1600m 5:22.18 6th · 4th on team 105.8 +0.5%
2019-03-13 Ardrey Kell Midweek Meet 3200m 13:03.3 11th · 6th on team 94.1 +0.5% SR
2019-03-06 Mooresville Home Meet #2 1600m 5:16 2nd · 1st on team 109.0 +1.6% SR RSR
2019-03-06 Mooresville Home Meet #2 800m 2:31.2 3rd · 1st on team 101.4 +1.6% SR
2018-12-19 East Rowan Polar Bear #2 3200m 13:20.2 9th · 3rd on team 92.1 +0.5% SR RSR
2018-12-19 East Rowan Polar Bear #2 1600m 5:28.4 9th · 3rd on team 103.6 +0.5% SR RSR

2018 TF 100.7

Hickory Ridge (NC) · Grade 11

Date Meet Event Result Place Ratingi Difficultyi PR/SR Flags
2018-04-19 Rocky River home meet 4 3200m 12:54.1 11th · 7th on team 95.9 +0.7% SR
2018-04-19 Rocky River home meet 4 800m 2:45.6 23rd · 8th on team 92.1 +0.7%
2018-03-28 Rocky River Meet 2 1600m 5:14 8th · 5th on team 107.3 -0.6% PR SR RSR
2018-03-15 Rocky River Meet 1 1600m 5:23 5th · 5th on team 105.9 +0.7% SR RSR
2018-03-15 Rocky River Meet 1 800m 2:28.7 8th · 6th on team 102.5 +0.7% PR SR

2017 TF 104.8

Hickory Ridge (NC) · Grade 10

Date Meet Event Result Place Ratingi Difficultyi PR/SR Flags
2017-04-27 Con,NWC,HR,JMR at West Rowan 1600m 5:15.2 20th · 8th on team 108.9 +1.7% RSR
2017-04-27 Con,NWC,HR,JMR at West Rowan 1600m 5:23.4 26th · 10th on team 106.2 +1.7%
2017-04-26 West Rowan Home Meet 1600m 5:15.12 8th · 5th on team 108.8 +1.5% PR SR RSR
2017-04-06 East Rowan 4-6-2017 Track Meet 3200m 13:27.44 19th · 8th on team 92.3 +0.8% SR
2017-04-06 East Rowan 4-6-2017 Track Meet 1600m 5:22.44 11th · 5th on team 106.4 +0.8% SR RSR
2017-03-22 CM,NWC,JMR,HR at Wesr Rowan 1600m 5:23.4 15th · 4th on team 106.3 +1.7% SR RSR

2016 TF 106.0

Hickory Ridge (NC) · Grade 9

Date Meet Event Result Place Ratingi Difficultyi PR/SR Flags
2016-04-28 WRHS #4 3200m 11:33.3 5th · 3rd on team 106.9 +1.5%
2016-04-14 SPC Meet 2 3200m 11:31.5 4th · 2nd on team 107.2 +1.3% ★PR R SR RSR
2016-04-06 West Rowan #3 3200m 11:43.18 6th · 1st on team 106.0 +1.5%
2016-04-06 West Rowan #3 1600m 5:24.95 15th · 7th on team 105.5 +1.5%
2016-03-22 East Rowan Meet #4 1600m 5:20.86 15th · 3rd on team 105.9 +0.8% PR R SR RSR
2016-03-22 East Rowan Meet #4 3200m 11:33.08 8th · 3rd on team 106.3 +0.8% PR R SR RSR
2016-03-17 East Rowan Meet #3 1600m 5:24.93 9th · 6th on team 104.5 +0.8% PR R SR RSR